createdAt,value
2023-02-26T00:01:42.367Z,68.96
2023-02-26T00:04:11.303Z,69.27
2023-02-26T00:06:53.438Z,69.52
2023-02-26T00:09:24.819Z,68.78
2023-02-26T00:11:53.167Z,68.72
2023-02-26T00:14:21.496Z,68.50
2023-02-26T00:17:08.318Z,68.97
2023-02-26T00:19:36.436Z,69.20
2023-02-26T00:22:04.667Z,69.88
2023-02-26T00:24:32.574Z,69.97
2023-02-26T00:27:00.644Z,69.74
2023-02-26T00:29:28.736Z,70.37
2023-02-26T00:31:57.027Z,70.46
2023-02-26T00:34:25.263Z,70.67
2023-02-26T00:37:15.905Z,70.94
2023-02-26T00:39:46.541Z,70.92
2023-02-26T00:42:15.069Z,71.11
2023-02-26T00:44:43.392Z,71.39
2023-02-26T00:47:48.770Z,70.85
2023-02-26T00:50:18.600Z,70.41
2023-02-26T00:53:18.597Z,71.08
2023-02-26T00:55:46.947Z,71.36
2023-02-26T00:58:14.677Z,70.31
2023-02-26T01:00:42.538Z,70.06
2023-02-26T01:03:11.646Z,69.76
2023-02-26T01:05:39.589Z,69.58
2023-02-26T01:08:17.086Z,69.54
2023-02-26T01:10:45.136Z,70.32
2023-02-26T01:13:13.215Z,70.91
2023-02-26T01:15:48.290Z,70.49
2023-02-26T01:18:28.858Z,70.33
2023-02-26T01:21:10.495Z,71.15
2023-02-26T01:23:47.018Z,71.44
2023-02-26T01:26:28.259Z,71.01
2023-02-26T01:28:57.010Z,70.52
2023-02-26T01:31:49.533Z,71.05
2023-02-26T01:34:42.109Z,70.95
2023-02-26T01:37:48.665Z,71.35
2023-02-26T01:40:48.777Z,70.93
2023-02-26T01:43:39.348Z,70.09
2023-02-26T01:46:24.110Z,69.80
2023-02-26T01:48:59.721Z,69.90
2023-02-26T01:52:05.808Z,69.71
2023-02-26T01:54:37.613Z,69.17
2023-02-26T01:57:09.860Z,68.45
2023-02-26T01:59:42.559Z,68.48
2023-02-26T02:02:13.593Z,68.57
2023-02-26T02:04:42.340Z,68.82
2023-02-26T02:07:10.448Z,68.13
2023-02-26T02:09:38.709Z,67.55
2023-02-26T02:12:35.628Z,67.11
2023-02-26T02:15:27.244Z,67.89
2023-02-26T02:18:19.284Z,67.87
2023-02-26T02:20:53.083Z,67.36
2023-02-26T02:23:48.144Z,67.70
2023-02-26T02:26:31.296Z,68.38
2023-02-26T02:29:30.633Z,68.20
2023-02-26T02:31:58.424Z,67.04
2023-02-26T02:34:41.962Z,63.18
2023-02-26T02:37:21.124Z,62.57
2023-02-26T02:40:11.649Z,61.28
2023-02-26T02:42:50.311Z,61.88
2023-02-26T02:45:25.996Z,62.51
2023-02-26T02:48:00.217Z,62.46
2023-02-26T02:50:34.826Z,62.38
2023-02-26T02:53:14.976Z,61.05
2023-02-26T02:56:09.754Z,60.45
2023-02-26T02:58:43.006Z,59.29
2023-02-26T03:01:16.115Z,58.39
2023-02-26T03:03:50.537Z,57.66
2023-02-26T03:06:18.356Z,57.66
2023-02-26T03:08:48.408Z,56.75
2023-02-26T03:11:17.443Z,56.08
2023-02-26T03:13:46.935Z,55.71
2023-02-26T03:16:30.936Z,55.34
2023-02-26T03:19:24.113Z,55.24
2023-02-26T03:22:01.993Z,55.14
2023-02-26T03:25:05.203Z,55.60
2023-02-26T03:28:11.588Z,55.46
2023-02-26T03:31:02.074Z,54.79
2023-02-26T03:33:52.985Z,54.53
2023-02-26T03:36:24.960Z,54.19
2023-02-26T03:39:40.691Z,53.94
2023-02-26T03:42:17.483Z,53.20
2023-02-26T03:45:00.111Z,53.34
2023-02-26T03:47:29.695Z,52.81
2023-02-26T03:50:07.111Z,52.71
2023-02-26T03:52:48.960Z,52.81
2023-02-26T03:55:33.491Z,51.98
2023-02-26T03:58:27.441Z,52.49
2023-02-26T04:01:22.297Z,52.71
2023-02-26T04:04:06.278Z,52.44
2023-02-26T04:06:34.900Z,52.36
2023-02-26T04:09:04.932Z,52.22
2023-02-26T04:11:36.785Z,51.89
2023-02-26T04:14:04.692Z,52.21
2023-02-26T04:16:37.577Z,52.20
2023-02-26T04:19:05.421Z,53.18
2023-02-26T04:21:33.314Z,53.54
2023-02-26T04:24:01.623Z,54.37
2023-02-26T04:26:29.424Z,54.31
2023-02-26T04:28:57.244Z,55.29
2023-02-26T04:31:25.539Z,55.61
2023-02-26T04:33:53.442Z,55.22
2023-02-26T04:36:21.742Z,56.35
2023-02-26T04:38:49.821Z,56.51
2023-02-26T04:41:17.685Z,57.05
2023-02-26T04:43:49.033Z,56.55
2023-02-26T04:46:25.445Z,56.99
2023-02-26T04:48:53.608Z,57.63
2023-02-26T04:51:21.690Z,57.95
2023-02-26T04:53:51.974Z,57.28
2023-02-26T04:56:21.100Z,58.18
2023-02-26T04:58:49.510Z,58.33
2023-02-26T05:01:23.704Z,58.12
2023-02-26T05:03:51.739Z,58.57
2023-02-26T05:06:19.552Z,59.18
2023-02-26T05:08:47.637Z,58.74
2023-02-26T05:11:15.461Z,58.00
2023-02-26T05:13:43.331Z,58.38
2023-02-26T05:16:11.237Z,59.38
2023-02-26T05:18:39.154Z,58.87
2023-02-26T05:21:07.078Z,59.33
2023-02-26T05:23:35.057Z,59.76
2023-02-26T05:26:02.986Z,59.60
2023-02-26T05:28:31.588Z,59.37
2023-02-26T05:30:59.827Z,59.82
2023-02-26T05:33:27.737Z,59.95
2023-02-26T05:35:55.725Z,59.17
2023-02-26T05:38:23.807Z,58.68
2023-02-26T05:40:51.651Z,58.88
2023-02-26T05:43:19.561Z,58.90
2023-02-26T05:45:47.381Z,58.66
2023-02-26T05:48:15.181Z,59.54
2023-02-26T05:50:42.999Z,60.10
2023-02-26T05:53:11.192Z,59.46
2023-02-26T05:55:39.072Z,59.18
2023-02-26T05:58:07.142Z,59.40
2023-02-26T06:00:35.108Z,59.60
2023-02-26T06:03:03.111Z,59.65
2023-02-26T06:05:31.014Z,59.31
2023-02-26T06:07:58.938Z,59.34
2023-02-26T06:10:26.924Z,58.98
2023-02-26T06:12:55.022Z,59.58
2023-02-26T06:15:23.317Z,59.46
2023-02-26T06:17:51.253Z,59.33
2023-02-26T06:20:19.186Z,58.66
2023-02-26T06:22:47.012Z,59.03
2023-02-26T06:25:14.936Z,59.18
2023-02-26T06:27:42.866Z,58.53
2023-02-26T06:30:11.435Z,58.57
2023-02-26T06:32:39.431Z,58.28
2023-02-26T06:35:07.961Z,57.88
2023-02-26T06:37:35.944Z,58.55
2023-02-26T06:40:04.756Z,58.59
2023-02-26T06:42:32.655Z,58.75
2023-02-26T06:45:00.425Z,58.68
2023-02-26T06:47:28.402Z,58.92
2023-02-26T06:49:56.214Z,58.29
2023-02-26T06:52:24.188Z,59.17
2023-02-26T06:54:51.988Z,59.17
2023-02-26T06:57:19.788Z,58.86
2023-02-26T06:59:47.626Z,59.57
2023-02-26T07:02:21.005Z,59.22
2023-02-26T07:04:48.849Z,60.21
2023-02-26T07:07:16.684Z,61.18
2023-02-26T07:09:46.047Z,62.32
2023-02-26T07:12:14.512Z,62.63
2023-02-26T07:14:43.956Z,63.76
2023-02-26T07:17:21.106Z,64.24
2023-02-26T07:19:50.392Z,64.17
2023-02-26T07:22:21.904Z,63.70
2023-02-26T07:24:51.437Z,63.24
2023-02-26T07:27:19.532Z,63.24
2023-02-26T07:29:47.377Z,63.11
2023-02-26T07:32:15.172Z,63.13
2023-02-26T07:34:43.116Z,62.01
2023-02-26T07:37:10.881Z,61.92
2023-02-26T07:39:38.690Z,61.10
2023-02-26T07:42:06.551Z,60.43
2023-02-26T07:44:34.634Z,61.54
2023-02-26T07:47:02.507Z,59.76
2023-02-26T07:49:30.609Z,59.58
2023-02-26T07:51:58.700Z,58.41
2023-02-26T07:54:27.050Z,57.96
2023-02-26T07:56:54.909Z,57.91
2023-02-26T07:59:23.010Z,57.26
2023-02-26T08:01:50.917Z,56.83
2023-02-26T08:04:18.813Z,56.08
2023-02-26T08:06:46.636Z,54.92
2023-02-26T08:09:14.800Z,53.85
2023-02-26T08:11:43.701Z,54.22
2023-02-26T08:14:12.241Z,53.17
2023-02-26T08:16:40.290Z,53.47
2023-02-26T08:19:08.395Z,52.84
2023-02-26T08:21:36.541Z,51.92
2023-02-26T08:24:04.916Z,50.60
2023-02-26T08:26:36.940Z,50.80
2023-02-26T08:29:05.777Z,50.98
2023-02-26T08:31:35.300Z,50.51
2023-02-26T08:34:04.364Z,49.52
2023-02-26T08:36:33.197Z,49.57
2023-02-26T08:39:01.324Z,49.36
2023-02-26T08:41:30.908Z,49.70
2023-02-26T08:44:03.061Z,47.98
2023-02-26T08:46:31.547Z,47.29
2023-02-26T08:48:59.669Z,47.92
2023-02-26T08:51:27.930Z,47.48
2023-02-26T08:53:57.048Z,46.74
2023-02-26T08:56:25.460Z,45.85
2023-02-26T08:58:53.743Z,45.23
2023-02-26T09:01:21.843Z,45.22
2023-02-26T09:03:49.823Z,45.51
2023-02-26T09:06:17.859Z,45.31
2023-02-26T09:08:45.836Z,43.29
2023-02-26T09:11:13.894Z,43.93
2023-02-26T09:13:42.057Z,43.14
2023-02-26T09:16:10.405Z,43.36
2023-02-26T09:18:38.422Z,43.23
2023-02-26T09:21:06.537Z,43.14
2023-02-26T09:23:34.600Z,43.19
2023-02-26T09:26:02.799Z,43.04
2023-02-26T09:28:30.898Z,42.24
2023-02-26T09:30:58.875Z,41.95
2023-02-26T09:33:26.936Z,41.53
2023-02-26T09:35:54.990Z,42.58
2023-02-26T09:38:23.027Z,41.63
2023-02-26T09:41:06.642Z,41.01
2023-02-26T09:44:07.768Z,41.48
2023-02-26T09:47:02.936Z,41.18
2023-02-26T09:50:15.516Z,41.23
2023-02-26T09:53:00.886Z,41.09
2023-02-26T09:55:40.137Z,40.87
2023-02-26T09:58:17.687Z,41.22
2023-02-26T10:01:05.606Z,40.42
2023-02-26T10:04:09.072Z,40.49
2023-02-26T10:07:06.038Z,40.78
2023-02-26T10:09:43.610Z,40.41
2023-02-26T10:12:21.811Z,40.81
2023-02-26T10:14:59.310Z,39.34
2023-02-26T10:17:49.045Z,39.20
2023-02-26T10:20:37.366Z,38.23
2023-02-26T10:23:37.628Z,37.68
2023-02-26T10:26:14.699Z,37.56
2023-02-26T10:29:07.824Z,37.76
2023-02-26T10:31:41.556Z,37.25
2023-02-26T10:34:31.309Z,37.45
2023-02-26T10:37:14.312Z,37.17
2023-02-26T10:40:00.719Z,36.93
2023-02-26T10:42:34.029Z,36.94
2023-02-26T10:45:11.291Z,36.97
2023-02-26T10:48:05.166Z,36.29
2023-02-26T10:50:33.400Z,36.53
2023-02-26T10:53:01.537Z,36.68
2023-02-26T10:55:58.525Z,36.65
2023-02-26T10:58:27.346Z,36.71
2023-02-26T11:00:57.329Z,36.60
2023-02-26T11:03:41.850Z,36.24
2023-02-26T11:06:12.524Z,35.91
2023-02-26T11:08:43.858Z,35.73
2023-02-26T11:11:41.064Z,35.00
2023-02-26T11:14:09.729Z,34.44
2023-02-26T11:16:49.344Z,34.42
2023-02-26T11:19:20.511Z,33.70
2023-02-26T11:21:50.797Z,33.75
2023-02-26T11:24:41.362Z,33.78
2023-02-26T11:27:22.423Z,33.34
2023-02-26T11:29:57.431Z,33.54
2023-02-26T11:32:34.937Z,33.36
2023-02-26T11:35:07.279Z,33.36
2023-02-26T11:38:00.699Z,33.81
2023-02-26T11:40:41.514Z,33.72
2023-02-26T11:43:16.059Z,33.57
2023-02-26T11:45:47.764Z,33.55
2023-02-26T11:48:28.645Z,33.53
2023-02-26T11:51:04.425Z,32.95
2023-02-26T11:53:42.644Z,32.67
2023-02-26T11:56:19.814Z,33.09
2023-02-26T11:58:55.223Z,33.04
2023-02-26T12:01:28.713Z,33.32
2023-02-26T12:04:01.272Z,32.73
2023-02-26T12:06:29.619Z,32.28
2023-02-26T12:08:57.989Z,32.71
2023-02-26T12:11:31.733Z,32.35
2023-02-26T12:14:19.864Z,32.13
2023-02-26T12:17:00.015Z,32.40
2023-02-26T12:19:42.906Z,32.53
2023-02-26T12:22:28.105Z,32.30
2023-02-26T12:25:27.990Z,32.45
2023-02-26T12:28:23.996Z,31.47
2023-02-26T12:31:16.028Z,31.83
2023-02-26T12:33:58.880Z,31.85
2023-02-26T12:36:55.049Z,31.86
2023-02-26T12:39:41.506Z,32.13
2023-02-26T12:42:23.016Z,32.58
2023-02-26T12:45:09.230Z,32.78
2023-02-26T12:47:55.433Z,33.09
2023-02-26T12:50:53.370Z,32.93
2023-02-26T12:53:43.496Z,33.28
2023-02-26T12:56:34.022Z,33.35
2023-02-26T12:59:20.113Z,33.34
2023-02-26T13:02:05.872Z,33.73
2023-02-26T13:04:36.534Z,33.75
2023-02-26T13:07:31.690Z,33.63
2023-02-26T13:10:17.268Z,33.12
2023-02-26T13:12:50.972Z,32.68
2023-02-26T13:15:25.518Z,32.96
2023-02-26T13:18:11.877Z,33.77
2023-02-26T13:21:05.932Z,34.46
2023-02-26T13:23:49.217Z,33.94
2023-02-26T13:26:18.566Z,34.42
2023-02-26T13:28:50.006Z,33.82
2023-02-26T13:31:28.832Z,33.58
2023-02-26T13:34:01.534Z,33.28
2023-02-26T13:36:30.205Z,33.52
2023-02-26T13:39:11.512Z,33.59
2023-02-26T13:42:02.560Z,33.90
2023-02-26T13:44:39.996Z,34.56
2023-02-26T13:47:11.258Z,34.16
2023-02-26T13:49:56.310Z,33.84
2023-02-26T13:52:31.029Z,34.54
2023-02-26T13:54:59.782Z,34.54
2023-02-26T13:57:36.222Z,34.52
2023-02-26T14:00:13.362Z,34.54
2023-02-26T14:02:47.439Z,34.53
2023-02-26T14:05:50.849Z,34.42
2023-02-26T14:08:26.188Z,34.75
2023-02-26T14:10:58.606Z,34.15
2023-02-26T14:13:42.208Z,34.23
2023-02-26T14:16:14.567Z,34.12
2023-02-26T14:18:48.881Z,34.01
2023-02-26T14:21:26.200Z,34.13
2023-02-26T14:24:19.186Z,34.30
2023-02-26T14:26:50.690Z,34.00
2023-02-26T14:29:37.956Z,33.62
2023-02-26T14:32:13.613Z,33.50
2023-02-26T14:34:52.302Z,34.09
2023-02-26T14:37:24.841Z,34.57
2023-02-26T14:39:58.100Z,34.86
2023-02-26T14:42:28.632Z,34.48
2023-02-26T14:45:23.745Z,34.78
2023-02-26T14:47:52.063Z,34.47
2023-02-26T14:50:22.945Z,34.05
2023-02-26T14:52:53.495Z,34.28
2023-02-26T14:55:30.204Z,34.29
2023-02-26T14:58:09.511Z,34.37
2023-02-26T15:00:46.650Z,34.85
2023-02-26T15:03:36.395Z,34.58
2023-02-26T15:06:16.655Z,34.83
2023-02-26T15:09:19.470Z,34.84
2023-02-26T15:12:10.225Z,35.01
2023-02-26T15:14:59.892Z,35.14
2023-02-26T15:17:49.327Z,35.03
2023-02-26T15:20:47.967Z,35.65
2023-02-26T15:23:52.353Z,36.60
2023-02-26T15:26:25.602Z,36.08
2023-02-26T15:28:54.941Z,36.13
2023-02-26T15:31:34.152Z,36.74
2023-02-26T15:34:03.428Z,36.50
2023-02-26T15:36:32.041Z,36.60
2023-02-26T15:39:04.022Z,36.29
2023-02-26T15:41:34.087Z,36.42
2023-02-26T15:44:07.011Z,36.08
2023-02-26T15:46:38.881Z,35.18
2023-02-26T15:49:22.319Z,36.25
2023-02-26T15:51:52.932Z,36.00
2023-02-26T15:54:24.181Z,36.26
2023-02-26T15:56:52.618Z,35.56
2023-02-26T15:59:25.894Z,35.72
2023-02-26T16:01:55.516Z,36.27
2023-02-26T16:04:24.157Z,36.68
2023-02-26T16:06:57.663Z,36.01
2023-02-26T16:09:36.487Z,35.55
2023-02-26T16:12:30.393Z,35.47
2023-02-26T16:15:04.585Z,35.60
2023-02-26T16:17:35.833Z,35.93
2023-02-26T16:20:07.427Z,35.88
2023-02-26T16:22:39.332Z,35.73
2023-02-26T16:25:15.539Z,36.12
2023-02-26T16:27:44.806Z,36.04
2023-02-26T16:30:20.262Z,36.55
2023-02-26T16:32:52.586Z,37.17
2023-02-26T16:35:24.483Z,38.04
2023-02-26T16:37:55.344Z,39.68
2023-02-26T16:40:28.828Z,39.78
2023-02-26T16:43:27.256Z,39.83
2023-02-26T16:45:57.062Z,40.79
2023-02-26T16:48:31.833Z,39.94
2023-02-26T16:51:08.769Z,41.17
2023-02-26T16:53:46.118Z,40.21
2023-02-26T16:56:25.043Z,40.71
2023-02-26T16:59:19.064Z,40.66
2023-02-26T17:01:52.477Z,40.99
2023-02-26T17:04:25.314Z,40.72
2023-02-26T17:06:53.328Z,41.13
2023-02-26T17:09:39.508Z,40.91
2023-02-26T17:12:20.169Z,40.85
2023-02-26T17:15:00.908Z,41.04
2023-02-26T17:17:28.786Z,41.35
2023-02-26T17:19:56.905Z,41.06
2023-02-26T17:22:29.246Z,40.99
2023-02-26T17:24:57.131Z,41.18
2023-02-26T17:27:32.639Z,40.77
2023-02-26T17:30:04.318Z,40.52
2023-02-26T17:32:32.739Z,40.18
2023-02-26T17:35:00.696Z,40.64
2023-02-26T17:37:33.672Z,40.49
2023-02-26T17:40:02.286Z,40.71
2023-02-26T17:42:30.085Z,40.31
2023-02-26T17:44:57.915Z,40.25
2023-02-26T17:47:26.674Z,40.32
2023-02-26T17:49:54.540Z,39.86
2023-02-26T17:52:22.308Z,40.49
2023-02-26T17:54:50.185Z,40.79
2023-02-26T17:57:20.492Z,41.06
2023-02-26T17:59:49.477Z,40.89
2023-02-26T18:02:23.387Z,39.94
2023-02-26T18:04:52.187Z,41.00
2023-02-26T18:07:24.242Z,40.72
2023-02-26T18:09:51.933Z,40.81
2023-02-26T18:12:22.064Z,41.12
2023-02-26T18:14:50.075Z,40.53
2023-02-26T18:17:31.721Z,40.74
2023-02-26T18:20:00.294Z,40.86
2023-02-26T18:22:28.056Z,40.36
2023-02-26T18:24:56.082Z,40.24
2023-02-26T18:27:26.471Z,40.78
2023-02-26T18:29:54.698Z,40.38
2023-02-26T18:32:25.444Z,40.23
2023-02-26T18:34:53.662Z,40.84
2023-02-26T18:37:24.631Z,40.57
2023-02-26T18:39:52.978Z,39.82
2023-02-26T18:42:26.421Z,40.58
2023-02-26T18:44:55.292Z,40.22
2023-02-26T18:47:23.206Z,39.86
2023-02-26T18:49:52.096Z,38.53
2023-02-26T18:52:19.925Z,38.52
2023-02-26T18:54:47.703Z,37.52
2023-02-26T18:57:15.572Z,37.85
2023-02-26T18:59:43.456Z,37.86
2023-02-26T19:02:14.295Z,37.13
2023-02-26T19:04:43.155Z,37.26
2023-02-26T19:07:11.247Z,37.00
2023-02-26T19:09:39.024Z,37.76
2023-02-26T19:12:09.343Z,38.02
2023-02-26T19:14:38.804Z,37.31
2023-02-26T19:17:06.642Z,36.67
2023-02-26T19:19:34.553Z,37.45
2023-02-26T19:22:02.381Z,36.83
2023-02-26T19:24:30.204Z,37.26
2023-02-26T19:26:58.214Z,37.26
2023-02-26T19:29:25.976Z,37.20
2023-02-26T19:31:53.924Z,37.40
2023-02-26T19:34:22.234Z,37.23
2023-02-26T19:36:50.041Z,36.80
2023-02-26T19:39:19.056Z,36.53
2023-02-26T19:41:49.227Z,36.93
2023-02-26T19:44:17.603Z,37.32
2023-02-26T19:46:46.328Z,36.66
2023-02-26T19:49:14.277Z,36.72
2023-02-26T19:51:42.561Z,36.72
2023-02-26T19:54:12.824Z,37.16
2023-02-26T19:56:42.368Z,36.76
2023-02-26T19:59:10.526Z,36.78
2023-02-26T20:01:40.316Z,36.83
2023-02-26T20:04:08.495Z,37.15
2023-02-26T20:06:36.780Z,36.59
2023-02-26T20:09:07.305Z,36.87
2023-02-26T20:11:35.280Z,36.72
2023-02-26T20:14:04.293Z,36.41
2023-02-26T20:16:32.773Z,36.68
2023-02-26T20:19:01.526Z,36.17
2023-02-26T20:21:32.169Z,36.14
2023-02-26T20:24:03.508Z,35.85
2023-02-26T20:26:36.124Z,36.52
2023-02-26T20:29:07.092Z,36.20
2023-02-26T20:31:38.363Z,36.92
2023-02-26T20:34:10.760Z,36.83
2023-02-26T20:36:43.187Z,36.66
2023-02-26T20:39:13.396Z,37.32
2023-02-26T20:41:42.355Z,37.13
2023-02-26T20:44:10.492Z,36.72
2023-02-26T20:46:39.391Z,37.20
2023-02-26T20:49:11.811Z,36.87
2023-02-26T20:51:43.285Z,36.54
2023-02-26T20:54:18.051Z,36.75
2023-02-26T20:56:47.164Z,37.35
2023-02-26T20:59:18.047Z,37.43
2023-02-26T21:01:53.016Z,37.64
2023-02-26T21:04:21.963Z,37.63
2023-02-26T21:06:49.897Z,37.66
2023-02-26T21:09:17.718Z,37.99
2023-02-26T21:11:45.591Z,37.76
2023-02-26T21:14:13.505Z,37.21
2023-02-26T21:16:41.619Z,36.64
2023-02-26T21:19:09.599Z,37.41
2023-02-26T21:21:38.661Z,37.48
2023-02-26T21:24:06.879Z,37.52
2023-02-26T21:26:35.363Z,37.45
2023-02-26T21:29:05.038Z,36.62
2023-02-26T21:31:32.960Z,37.25
2023-02-26T21:34:11.822Z,36.90
2023-02-26T21:36:48.791Z,36.93
2023-02-26T21:39:17.319Z,36.62
2023-02-26T21:41:45.147Z,36.75
2023-02-26T21:44:12.919Z,37.49
2023-02-26T21:46:40.853Z,37.23
2023-02-26T21:49:08.840Z,37.10
2023-02-26T21:51:36.792Z,37.04
2023-02-26T21:54:04.932Z,37.39
2023-02-26T21:56:33.850Z,37.34
2023-02-26T21:59:01.958Z,38.00
2023-02-26T22:01:30.159Z,37.60
2023-02-26T22:03:58.065Z,37.44
2023-02-26T22:06:26.033Z,37.15
2023-02-26T22:08:54.474Z,37.70
2023-02-26T22:11:22.753Z,36.93
2023-02-26T22:13:50.573Z,37.42
2023-02-26T22:16:18.822Z,37.69
2023-02-26T22:18:47.569Z,37.65
2023-02-26T22:21:15.586Z,37.30
2023-02-26T22:23:44.115Z,38.15
2023-02-26T22:26:12.355Z,38.23
2023-02-26T22:28:40.182Z,37.70
2023-02-26T22:31:08.089Z,37.47
2023-02-26T22:33:36.486Z,37.10
2023-02-26T22:36:04.972Z,37.59
2023-02-26T22:38:32.814Z,37.23
2023-02-26T22:41:00.765Z,37.54
2023-02-26T22:43:28.722Z,37.83
2023-02-26T22:45:56.652Z,37.67
2023-02-26T22:48:24.739Z,37.53
2023-02-26T22:50:53.026Z,37.68
2023-02-26T22:53:20.945Z,37.40
2023-02-26T22:55:49.170Z,37.63
2023-02-26T22:58:16.955Z,37.14
2023-02-26T23:00:45.196Z,37.21
2023-02-26T23:03:14.914Z,37.05
2023-02-26T23:05:42.648Z,37.27
2023-02-26T23:08:10.696Z,37.67
2023-02-26T23:10:38.651Z,37.85
2023-02-26T23:13:06.541Z,37.92
2023-02-26T23:15:34.869Z,37.46
2023-02-26T23:18:02.960Z,37.48
2023-02-26T23:20:30.908Z,37.71
2023-02-26T23:22:58.770Z,37.59
2023-02-26T23:25:26.779Z,38.24
2023-02-26T23:27:54.690Z,38.31
2023-02-26T23:30:22.475Z,37.46
2023-02-26T23:32:50.392Z,38.09
2023-02-26T23:35:18.232Z,37.88
2023-02-26T23:37:46.078Z,37.98
2023-02-26T23:40:14.861Z,37.98
2023-02-26T23:42:42.657Z,38.07
2023-02-26T23:45:11.321Z,37.79
2023-02-26T23:47:39.367Z,38.11
2023-02-26T23:50:07.962Z,38.68
2023-02-26T23:52:36.801Z,38.19
2023-02-26T23:55:05.421Z,38.14
2023-02-26T23:57:33.350Z,38.04
